Terminal Aerodrome Forecast
Issued by NWS

Home | Current Version | Previous Version | Text Only | Print | Product List | Glossary On
Versions: 1 2 3 4 5 6 7 8 9 10 11 12 13 14 15 16 17 18
000
FTUS42 KTBW 161700
TAFLAL
TAF
KLAL 161735Z 1618/1718 05011KT P6SM SCT100 BKN250
     FM170000 05010KT P6SM SCT020 BKN040
     FM170600 05009KT P6SM SCT020 BKN030
     FM171000 07010KT P6SM SCT016 OVC025
     FM171400 08011KT P6SM VCSH SCT020 OVC035=

USA.gov is the U.S. government's official web portal to all federal, state and local government web resources and services.